Time;durP1;ratioP1;P1;durP2;ratioP2;P2;SDS_P1;SDS_P2;PMS_P1;PMS_P2;Temp;Humidity;BMP_temperature;BMP_pressure;BME280_temperature;BME280_humidity;BME280_pressure;Samples;Min_cycle;Max_cycle;Signal;HPM_P1;HPM_P2
2022/09/22 00:01:20;;;;;;;13.40;4.47;;;13.00;99.90;;;;;;5070377;28;20188;-57
2022/09/22 00:03:48;;;;;;;7.95;4.40;;;12.90;99.90;;;;;;5070866;28;20249;-58
2022/09/22 00:06:16;;;;;;;7.82;4.22;;;12.90;99.90;;;;;;5070575;28;20281;-57
2022/09/22 00:08:44;;;;;;;7.70;4.30;;;12.90;99.90;;;;;;5059439;28;20176;-57
2022/09/22 00:11:15;;;;;;;6.93;4.53;;;12.80;99.90;;;;;;5070825;28;20682;-57
2022/09/22 00:13:44;;;;;;;7.05;4.35;;;12.80;99.90;;;;;;5070891;28;20603;-58
2022/09/22 00:16:11;;;;;;;5.38;3.97;;;12.70;99.90;;;;;;5070307;28;20180;-57
2022/09/22 00:18:37;;;;;;;6.10;4.20;;;12.70;99.90;;;;;;5071030;28;20183;-58
2022/09/22 00:21:08;;;;;;;6.73;4.30;;;12.70;99.90;;;;;;5070749;28;20180;-58
2022/09/22 00:23:33;;;;;;;9.90;4.67;;;12.70;99.90;;;;;;5070949;28;20250;-58
2022/09/22 00:26:03;;;;;;;6.33;4.20;;;12.70;99.90;;;;;;5070835;28;20627;-57
2022/09/22 00:28:29;;;;;;;5.75;4.22;;;12.70;99.90;;;;;;5070769;28;20255;-57
2022/09/22 00:30:55;;;;;;;8.55;5.32;;;12.60;99.90;;;;;;5070576;28;20345;-58
2022/09/22 00:33:20;;;;;;;6.20;4.57;;;12.70;99.90;;;;;;5069905;28;20640;-57
2022/09/22 00:35:56;;;;;;;8.13;5.17;;;12.50;99.90;;;;;;5070088;28;20698;-57
2022/09/22 00:38:22;;;;;;;6.67;4.43;;;12.70;99.90;;;;;;5052830;28;20549;-57
2022/09/22 00:40:48;;;;;;;8.20;4.40;;;12.70;99.90;;;;;;5070746;28;20671;-57
2022/09/22 00:43:20;;;;;;;6.28;4.35;;;12.70;99.90;;;;;;5070275;28;20199;-56
2022/09/22 00:45:53;;;;;;;8.20;3.72;;;12.70;99.90;;;;;;5070412;28;20164;-57
2022/09/22 00:48:21;;;;;;;5.47;3.87;;;12.60;99.90;;;;;;5052564;28;20188;-56
2022/09/22 00:50:49;;;;;;;6.83;4.70;;;12.60;99.90;;;;;;5070342;28;20701;-57
2022/09/22 00:53:16;;;;;;;6.73;4.33;;;12.50;99.90;;;;;;5069027;28;20234;-57
2022/09/22 00:56:03;;;;;;;9.63;4.67;;;12.50;99.90;;;;;;5052183;28;20176;-57
2022/09/22 00:58:34;;;;;;;8.23;4.90;;;12.40;99.90;;;;;;5069949;28;20200;-57
2022/09/22 01:01:00;;;;;;;7.77;4.27;;;12.30;99.90;;;;;;5070228;28;20196;-57
2022/09/22 01:03:28;;;;;;;7.77;4.30;;;12.30;99.90;;;;;;5069816;28;20180;-57
2022/09/22 01:05:59;;;;;;;6.07;4.50;;;12.20;99.90;;;;;;5069919;28;20690;-57
2022/09/22 01:08:25;;;;;;;7.73;4.60;;;12.20;99.90;;;;;;5069740;28;20654;-57
2022/09/22 01:10:53;;;;;;;6.57;4.40;;;12.20;99.90;;;;;;5070021;28;20241;-56
2022/09/22 01:13:43;;;;;;;6.33;4.70;;;12.20;99.90;;;;;;5070418;28;20247;-57
2022/09/22 01:16:17;;;;;;;7.10;4.87;;;12.20;99.90;;;;;;5054012;28;20189;-57
2022/09/22 01:18:43;;;;;;;6.47;4.30;;;;;;;;;;5069450;28;20210;-57
2022/09/22 01:21:21;;;;;;;10.63;4.27;;;12.20;99.90;;;;;;5069942;28;20173;-56
2022/09/22 01:24:17;;;;;;;6.83;4.50;;;12.10;99.90;;;;;;5069898;28;20534;-57
2022/09/22 01:27:10;;;;;;;8.17;4.10;;;12.10;99.90;;;;;;5073962;28;20168;-57
2022/09/22 01:30:04;;;;;;;7.27;4.30;;;12.20;99.90;;;;;;5073832;28;20249;-57
2022/09/22 01:32:35;;;;;;;9.20;4.50;;;13.60;99.90;;;;;;5071829;28;20485;-56
2022/09/22 01:35:13;;;;;;;7.40;4.07;;;12.20;99.90;;;;;;5073903;28;20207;-56
2022/09/22 01:38:10;;;;;;;5.17;3.40;;;12.10;99.90;;;;;;5069045;28;20238;-57
2022/09/22 01:40:47;;;;;;;5.23;3.73;;;12.10;99.90;;;;;;5073930;28;20180;-57
2022/09/22 01:43:22;;;;;;;6.77;3.90;;;12.00;99.90;;;;;;5073663;28;20188;-56
2022/09/22 01:45:49;;;;;;;8.03;4.20;;;12.00;99.90;;;;;;5073654;28;20168;-56
2022/09/22 01:48:22;;;;;;;6.37;4.13;;;12.00;99.90;;;;;;5069826;28;20180;-56
2022/09/22 01:50:51;;;;;;;7.50;4.53;;;12.00;99.90;;;;;;5073129;28;20212;-57
2022/09/22 01:53:21;;;;;;;6.67;4.20;;;12.00;99.90;;;;;;5071184;28;20180;-57
2022/09/22 01:55:54;;;;;;;7.30;4.67;;;12.00;99.90;;;;;;5070113;28;20191;-58
2022/09/22 01:58:27;;;;;;;8.43;4.53;;;11.60;99.90;;;;;;5073372;28;20596;-58
2022/09/22 02:01:05;;;;;;;6.83;4.40;;;11.90;99.90;;;;;;5073142;28;20188;-59
2022/09/22 02:03:39;;;;;;;8.47;5.27;;;11.80;99.90;;;;;;5073041;28;20200;-58
2022/09/22 02:06:17;;;;;;;7.90;4.20;;;11.80;99.90;;;;;;5072898;28;20220;-58
2022/09/22 02:09:11;;;;;;;5.77;4.03;;;11.70;99.90;;;;;;5073056;28;20196;-59
2022/09/22 02:11:37;;;;;;;10.00;4.53;;;11.90;99.90;;;;;;5061265;28;20210;-59
2022/09/22 02:14:04;;;;;;;6.13;4.87;;;11.80;99.90;;;;;;5073286;28;20173;-58
2022/09/22 02:16:30;;;;;;;12.63;5.00;;;11.80;99.90;;;;;;5072813;28;20528;-58
2022/09/22 02:19:10;;;;;;;8.13;4.40;;;11.70;99.90;;;;;;5054910;28;20173;-58
2022/09/22 02:21:37;;;;;;;10.37;5.17;;;11.80;99.90;;;;;;5072943;28;20185;-58
2022/09/22 02:24:04;;;;;;;9.27;4.87;;;11.40;99.90;;;;;;5073183;28;20317;-58
2022/09/22 02:26:33;;;;;;;7.37;4.83;;;11.70;99.90;;;;;;5073060;28;20177;-57
2022/09/22 02:29:09;;;;;;;6.83;4.70;;;11.60;99.90;;;;;;5072701;28;20180;-57
2022/09/22 02:31:37;;;;;;;6.90;4.83;;;11.70;99.90;;;;;;5072007;28;20192;-57
2022/09/22 02:34:04;;;;;;;8.37;4.57;;;11.80;99.90;;;;;;5072613;28;20686;-57
2022/09/22 02:36:48;;;;;;;8.63;5.47;;;11.70;99.90;;;;;;5071895;28;21694;-57
2022/09/22 02:39:22;;;;;;;8.03;4.77;;;11.70;99.90;;;;;;5072996;28;20238;-57
2022/09/22 02:42:15;;;;;;;7.73;5.20;;;11.70;99.90;;;;;;5072073;28;20260;-57
2022/09/22 02:44:49;;;;;;;7.47;4.97;;;11.70;99.90;;;;;;5072842;28;20180;-57
2022/09/22 02:47:34;;;;;;;8.90;4.97;;;11.70;99.90;;;;;;5072634;28;20164;-57
2022/09/22 02:50:03;;;;;;;8.27;5.00;;;11.70;99.90;;;;;;5072763;28;20214;-57
2022/09/22 02:52:29;;;;;;;15.10;5.53;;;11.70;99.90;;;;;;5072014;28;20193;-57
2022/09/22 02:54:55;;;;;;;10.07;5.47;;;11.80;99.90;;;;;;5072202;28;20180;-57
2022/09/22 02:57:21;;;;;;;8.30;4.97;;;11.70;99.90;;;;;;5072193;28;20188;-57
2022/09/22 02:59:46;;;;;;;7.63;5.17;;;11.80;99.90;;;;;;5071898;28;20176;-57
2022/09/22 03:02:12;;;;;;;9.50;5.43;;;11.80;99.90;;;;;;5072224;28;20636;-57
2022/09/22 03:04:38;;;;;;;11.53;5.30;;;11.70;99.90;;;;;;5072221;28;20181;-57
2022/09/22 03:07:05;;;;;;;8.53;4.83;;;11.70;99.90;;;;;;5071269;28;20227;-57
2022/09/22 03:09:32;;;;;;;8.83;5.23;;;11.70;99.90;;;;;;5071464;28;20183;-57
2022/09/22 03:11:58;;;;;;;7.90;5.47;;;11.70;99.90;;;;;;5071377;28;20188;-57
2022/09/22 03:14:23;;;;;;;10.23;5.40;;;11.70;99.90;;;;;;5072406;28;20233;-58
2022/09/22 03:16:49;;;;;;;10.53;5.43;;;11.70;99.90;;;;;;5071314;28;20200;-56
2022/09/22 03:19:15;;;;;;;11.47;5.47;;;11.60;99.90;;;;;;5072257;28;20165;-54
2022/09/22 03:21:40;;;;;;;8.60;5.53;;;11.70;99.90;;;;;;5070503;28;20663;-54
2022/09/22 03:24:06;;;;;;;15.67;5.50;;;11.70;99.90;;;;;;5070756;28;20176;-54
2022/09/22 03:26:33;;;;;;;7.97;5.20;;;11.60;99.90;;;;;;5071835;28;20204;-56
2022/09/22 03:28:59;;;;;;;8.37;5.87;;;11.80;99.90;;;;;;5071772;28;20175;-55
2022/09/22 03:31:25;;;;;;;8.73;5.97;;;11.60;99.90;;;;;;5071561;28;20280;-55
2022/09/22 03:33:51;;;;;;;9.20;6.07;;;11.50;99.90;;;;;;5071843;28;20177;-55
2022/09/22 03:36:17;;;;;;;16.30;6.80;;;;;;;;;;5071315;28;20184;-55
2022/09/22 03:38:43;;;;;;;10.03;6.30;;;11.40;99.90;;;;;;5071326;28;20200;-57
2022/09/22 03:41:08;;;;;;;9.00;5.90;;;11.40;99.90;;;;;;5071781;28;20476;-55
2022/09/22 03:43:34;;;;;;;12.50;5.73;;;11.40;99.90;;;;;;5071831;28;20172;-55
2022/09/22 03:46:01;;;;;;;10.47;6.37;;;11.30;99.90;;;;;;5071093;28;20301;-55
2022/09/22 03:48:28;;;;;;;12.47;6.40;;;11.20;99.90;;;;;;5070881;28;20646;-55
2022/09/22 03:50:54;;;;;;;11.03;6.40;;;11.30;99.90;;;;;;5071022;28;20679;-55
2022/09/22 03:53:21;;;;;;;10.00;6.30;;;11.30;99.90;;;;;;5071501;28;20176;-55
2022/09/22 03:55:47;;;;;;;12.73;6.10;;;11.30;99.90;;;;;;5071606;28;20292;-55
2022/09/22 03:58:13;;;;;;;13.07;6.63;;;11.30;99.90;;;;;;5069203;28;20184;-55
2022/09/22 04:00:39;;;;;;;12.30;6.33;;;11.30;99.90;;;;;;5059952;28;20266;-55
2022/09/22 04:03:05;;;;;;;13.70;6.50;;;11.30;99.90;;;;;;5070916;28;20223;-55
2022/09/22 04:05:31;;;;;;;9.97;6.87;;;11.30;99.90;;;;;;5071281;28;20192;-55
2022/09/22 04:07:57;;;;;;;14.67;7.60;;;11.20;99.90;;;;;;5070757;28;20627;-56
2022/09/22 04:10:23;;;;;;;13.13;7.07;;;11.20;99.90;;;;;;5070894;28;20224;-55
2022/09/22 04:12:48;;;;;;;10.57;6.53;;;11.20;99.90;;;;;;5070875;28;20181;-55
2022/09/22 04:15:15;;;;;;;9.83;6.60;;;11.20;99.90;;;;;;5071237;28;20176;-55
2022/09/22 04:17:41;;;;;;;11.40;6.97;;;11.20;99.90;;;;;;5070091;28;20197;-57
2022/09/22 04:20:07;;;;;;;9.27;6.40;;;11.20;99.90;;;;;;5070753;28;20651;-56
2022/09/22 04:22:33;;;;;;;12.70;6.87;;;11.20;99.90;;;;;;5070511;28;20188;-55
2022/09/22 04:24:59;;;;;;;13.87;6.60;;;11.40;99.90;;;;;;5070923;28;20167;-55
2022/09/22 04:27:25;;;;;;;8.80;6.83;;;;;;;;;;5070127;28;20187;-55
2022/09/22 04:29:51;;;;;;;10.30;7.17;;;11.20;99.90;;;;;;5070889;28;20225;-56
2022/09/22 04:32:17;;;;;;;9.63;6.20;;;11.20;99.90;;;;;;5070247;28;20825;-55
2022/09/22 04:34:43;;;;;;;15.07;7.40;;;11.20;99.90;;;;;;5070399;28;20192;-55
2022/09/22 04:37:10;;;;;;;11.90;7.47;;;11.10;99.90;;;;;;5070095;28;20655;-55
2022/09/22 04:39:36;;;;;;;15.90;7.93;;;11.10;99.90;;;;;;5070161;28;20222;-55
2022/09/22 04:42:02;;;;;;;13.53;7.57;;;11.10;99.90;;;;;;5070593;28;20173;-55
2022/09/22 04:44:28;;;;;;;15.43;7.90;;;11.10;99.90;;;;;;5070339;28;20215;-55
2022/09/22 04:46:55;;;;;;;13.00;6.83;;;11.10;99.90;;;;;;5069861;28;20538;-55
2022/09/22 04:49:20;;;;;;;11.40;6.97;;;11.10;99.90;;;;;;5069621;28;20187;-55
2022/09/22 04:51:46;;;;;;;12.87;7.37;;;11.10;99.90;;;;;;5052335;28;20283;-55
2022/09/22 04:54:13;;;;;;;19.60;7.60;;;11.10;99.90;;;;;;5069845;28;20542;-54
2022/09/22 04:56:42;;;;;;;13.53;7.23;;;10.90;99.90;;;;;;5070320;28;20358;-54
2022/09/22 04:59:08;;;;;;;21.20;8.13;;;10.70;99.90;;;;;;5069485;28;20165;-54
2022/09/22 05:01:33;;;;;;;14.23;8.33;;;11.00;99.90;;;;;;5070326;28;20177;-56
2022/09/22 05:03:59;;;;;;;12.23;8.03;;;11.00;99.90;;;;;;5052538;28;20177;-57
2022/09/22 05:06:25;;;;;;;14.73;8.43;;;11.10;99.90;;;;;;5070264;28;20220;-56
2022/09/22 05:08:51;;;;;;;15.63;8.27;;;11.10;99.90;;;;;;5070529;28;20168;-56
2022/09/22 05:11:22;;;;;;;13.97;8.27;;;11.20;99.90;;;;;;5070324;28;20208;-56
2022/09/22 05:13:49;;;;;;;14.37;8.90;;;12.20;99.90;;;;;;5070270;28;20173;-56
2022/09/22 05:16:16;;;;;;;20.07;10.10;;;11.20;99.90;;;;;;5069807;28;20177;-56
2022/09/22 05:18:41;;;;;;;19.93;10.30;;;11.30;99.90;;;;;;5052458;28;20172;-56
2022/09/22 05:21:07;;;;;;;22.77;10.53;;;11.30;99.90;;;;;;5070355;28;20175;-56
2022/09/22 05:23:33;;;;;;;17.80;10.13;;;11.30;99.90;;;;;;5052480;28;20184;-56
2022/09/22 05:25:59;;;;;;;14.60;8.50;;;11.40;99.90;;;;;;5070322;28;20180;-56
2022/09/22 05:28:25;;;;;;;22.40;8.43;;;11.30;99.90;;;;;;5070286;28;20161;-56
2022/09/22 05:30:51;;;;;;;14.73;9.67;;;11.30;99.90;;;;;;5070318;28;20352;-56
2022/09/22 05:33:17;;;;;;;14.87;9.73;;;11.20;99.90;;;;;;5070177;28;20658;-56
2022/09/22 05:35:43;;;;;;;17.93;10.37;;;11.20;99.90;;;;;;5070255;28;20234;-56
2022/09/22 05:38:09;;;;;;;16.43;10.77;;;11.20;99.90;;;;;;5070382;28;20628;-55
2022/09/22 05:40:34;;;;;;;21.17;10.30;;;11.20;99.90;;;;;;5070193;28;20639;-56
2022/09/22 05:43:00;;;;;;;19.53;10.33;;;11.20;99.90;;;;;;5069618;28;20169;-55
2022/09/22 05:45:26;;;;;;;19.57;10.10;;;11.20;99.90;;;;;;5069879;28;20195;-55
2022/09/22 05:47:52;;;;;;;20.57;10.47;;;11.30;99.90;;;;;;5069949;28;20314;-56
2022/09/22 05:50:19;;;;;;;24.00;10.80;;;11.30;99.90;;;;;;5069584;28;20765;-56
2022/09/22 05:52:45;;;;;;;23.70;11.37;;;11.30;99.90;;;;;;5069959;28;20172;-56
2022/09/22 05:55:12;;;;;;;15.90;9.53;;;11.30;99.90;;;;;;5051888;28;20175;-56
2022/09/22 05:57:38;;;;;;;20.97;11.17;;;11.10;99.90;;;;;;5070027;28;20647;-56
2022/09/22 06:00:06;;;;;;;22.03;10.10;;;11.40;99.90;;;;;;5070209;28;20493;-56
2022/09/22 06:02:31;;;;;;;17.87;9.90;;;11.40;99.90;;;;;;5061276;28;20235;-56
2022/09/22 06:04:57;;;;;;;19.93;10.00;;;11.50;99.90;;;;;;5046862;28;20651;-56
2022/09/22 06:07:23;;;;;;;15.83;10.80;;;11.50;99.90;;;;;;5068354;28;20228;-56
2022/09/22 06:09:49;;;;;;;24.77;11.70;;;11.60;99.90;;;;;;5049805;28;20204;-56
2022/09/22 06:12:15;;;;;;;20.87;10.60;;;11.60;99.90;;;;;;5053640;28;20165;-56
2022/09/22 06:14:41;;;;;;;17.63;11.03;;;11.70;99.90;;;;;;5053399;28;20260;-56
2022/09/22 06:17:10;;;;;;;19.20;11.00;;;11.60;99.90;;;;;;5053364;28;20217;-57
2022/09/22 06:19:37;;;;;;;29.80;11.03;;;11.60;99.90;;;;;;5053213;28;20165;-59
2022/09/22 06:22:03;;;;;;;17.50;11.00;;;11.70;99.90;;;;;;5053499;28;20181;-59
2022/09/22 06:24:29;;;;;;;19.13;11.37;;;11.70;99.90;;;;;;5044567;28;20196;-59
2022/09/22 06:26:55;;;;;;;21.50;10.87;;;11.80;99.90;;;;;;5072015;28;20220;-59
2022/09/22 06:29:20;;;;;;;30.60;12.27;;;11.80;99.90;;;;;;5072360;28;20585;-58
2022/09/22 06:31:47;;;;;;;20.77;11.37;;;11.90;99.90;;;;;;5072139;28;20542;-59
2022/09/22 06:34:13;;;;;;;21.03;13.33;;;11.90;99.90;;;;;;5038640;28;20176;-57
2022/09/22 06:36:41;;;;;;;22.00;13.47;;;12.00;99.90;;;;;;5074189;28;20183;-58
2022/09/22 06:39:09;;;;;;;22.07;13.83;;;12.10;99.90;;;;;;5091544;28;20175;-60
2022/09/22 06:41:35;;;;;;;24.27;13.63;;;12.00;99.90;;;;;;5080689;28;20187;-58
2022/09/22 06:44:01;;;;;;;24.73;14.03;;;12.20;99.90;;;;;;5071968;28;20196;-58
2022/09/22 06:46:29;;;;;;;26.57;13.60;;;12.30;99.90;;;;;;5072782;28;20176;-58
2022/09/22 06:48:56;;;;;;;23.33;12.87;;;12.30;99.90;;;;;;5072559;28;20176;-59
2022/09/22 06:51:34;;;;;;;24.60;13.87;;;12.50;99.90;;;;;;5072594;28;20212;-58
2022/09/22 06:54:03;;;;;;;21.13;13.03;;;12.50;99.90;;;;;;5071767;28;20168;-59
2022/09/22 06:56:32;;;;;;;21.00;13.20;;;12.60;99.90;;;;;;5071472;28;20235;-59
2022/09/22 06:58:57;;;;;;;18.43;12.53;;;12.60;99.90;;;;;;5072392;28;20179;-59
2022/09/22 07:01:23;;;;;;;24.13;12.40;;;12.90;99.90;;;;;;5072612;28;20173;-59
2022/09/22 07:03:50;;;;;;;22.55;11.30;;;12.80;99.90;;;;;;5070886;28;20200;-59
2022/09/22 07:06:17;;;;;;;24.30;11.43;;;12.80;99.90;;;;;;5071870;28;20220;-59
2022/09/22 07:08:45;;;;;;;21.77;12.32;;;12.90;99.90;;;;;;5072056;28;20179;-59
2022/09/22 07:11:12;;;;;;;18.97;11.17;;;13.00;99.90;;;;;;5071401;28;20239;-59
2022/09/22 07:13:40;;;;;;;19.03;11.23;;;13.00;99.90;;;;;;5053304;28;20187;-59
2022/09/22 07:16:08;;;;;;;19.92;11.18;;;13.20;99.90;;;;;;5072125;28;20229;-57
2022/09/22 07:18:41;;;;;;;20.35;11.65;;;13.20;99.90;;;;;;5071046;28;20283;-58
2022/09/22 07:21:10;;;;;;;19.67;12.13;;;13.30;99.90;;;;;;5071085;28;20180;-58
2022/09/22 07:23:36;;;;;;;25.52;12.13;;;13.50;99.90;;;;;;5070970;28;20176;-58
2022/09/22 07:26:04;;;;;;;22.85;11.60;;;13.60;99.90;;;;;;5071763;28;20243;-58
2022/09/22 07:28:32;;;;;;;27.38;12.57;;;13.60;99.90;;;;;;5070936;28;20662;-58
2022/09/22 07:31:05;;;;;;;26.60;12.15;;;13.70;99.90;;;;;;5059879;28;20229;-58
2022/09/22 07:33:32;;;;;;;21.65;11.82;;;13.80;99.90;;;;;;5071603;28;20180;-58
2022/09/22 07:36:03;;;;;;;22.08;11.40;;;13.90;99.90;;;;;;5071299;28;20184;-58
2022/09/22 07:38:32;;;;;;;24.00;11.27;;;14.10;99.90;;;;;;5070833;28;20184;-58
2022/09/22 07:40:59;;;;;;;18.88;11.23;;;14.40;99.90;;;;;;5072820;28;20670;-58
2022/09/22 07:43:27;;;;;;;23.67;10.75;;;14.40;99.90;;;;;;5086462;28;20176;-58
2022/09/22 07:45:56;;;;;;;18.98;10.52;;;14.60;99.90;;;;;;5049546;28;20202;-58
2022/09/22 07:48:36;;;;;;;21.27;11.38;;;14.80;99.90;;;;;;5071255;28;20195;-58
2022/09/22 07:51:18;;;;;;;19.60;10.25;;;14.90;99.90;;;;;;5069507;28;20211;-57
2022/09/22 07:53:49;;;;;;;22.33;10.25;;;15.00;99.90;;;;;;5070469;28;20185;-56
2022/09/22 07:56:17;;;;;;;14.57;8.70;;;15.10;99.90;;;;;;5070669;28;20172;-56
2022/09/22 07:58:48;;;;;;;16.55;9.20;;;15.30;99.90;;;;;;5052378;28;20702;-56
2022/09/22 08:01:15;;;;;;;16.30;9.65;;;15.40;99.90;;;;;;5065613;28;20243;-57
2022/09/22 08:03:41;;;;;;;18.38;9.15;;;15.50;99.90;;;;;;5071022;28;20257;-56
2022/09/22 08:06:09;;;;;;;19.88;8.98;;;15.70;99.90;;;;;;5070893;28;20307;-56
2022/09/22 08:08:40;;;;;;;20.35;9.80;;;15.80;99.90;;;;;;5070844;28;20191;-56
2022/09/22 08:11:17;;;;;;;21.00;8.75;;;15.90;99.90;;;;;;5068243;28;20237;-56
2022/09/22 08:13:49;;;;;;;15.70;8.43;;;15.90;99.90;;;;;;5060183;28;20245;-56
2022/09/22 08:16:17;;;;;;;23.08;10.13;;;16.00;99.90;;;;;;5070909;28;20168;-57
2022/09/22 08:18:43;;;;;;;14.95;8.43;;;16.10;99.90;;;;;;5070267;28;20256;-57
2022/09/22 08:21:09;;;;;;;13.27;8.68;;;16.20;99.90;;;;;;5052009;28;20188;-57
2022/09/22 08:23:36;;;;;;;14.65;8.82;;;16.30;99.90;;;;;;5070758;28;20547;-57
2022/09/22 08:26:07;;;;;;;19.17;8.35;;;16.50;99.90;;;;;;5070491;28;20255;-57
2022/09/22 08:28:33;;;;;;;17.05;8.30;;;16.50;99.90;;;;;;5071306;28;20181;-56
2022/09/22 08:31:00;;;;;;;12.27;8.05;;;16.50;99.90;;;;;;5070490;28;20713;-57
2022/09/22 08:33:28;;;;;;;22.83;7.82;;;16.80;99.90;;;;;;5052041;28;20341;-56
2022/09/22 08:36:02;;;;;;;15.00;6.72;;;17.60;99.90;;;;;;5070841;28;20253;-56
2022/09/22 08:38:29;;;;;;;17.27;7.30;;;17.90;99.90;;;;;;5070687;28;20630;-57
2022/09/22 08:41:23;;;;;;;13.43;6.40;;;17.90;99.90;;;;;;5070470;28;20204;-57
2022/09/22 08:43:54;;;;;;;11.52;6.15;;;18.40;99.90;;;;;;5063296;28;20184;-57
2022/09/22 08:46:31;;;;;;;12.52;5.85;;;18.80;99.90;;;;;;5070483;28;20172;-56
2022/09/22 08:52:49;;;;;;;11.77;5.32;;;18.30;99.90;;;;;;4969225;28;20203;-56
2022/09/22 08:55:20;;;;;;;10.20;5.63;;;18.50;99.90;;;;;;5070335;28;20171;-57
2022/09/22 08:58:11;;;;;;;10.10;5.57;;;18.60;99.90;;;;;;5070106;28;20181;-57
2022/09/22 09:00:41;;;;;;;10.57;5.10;;;18.70;99.90;;;;;;5069444;28;20176;-57
2022/09/22 09:03:15;;;;;;;9.95;4.05;;;19.00;99.90;;;;;;5077024;28;20271;-57
2022/09/22 09:06:03;;;;;;;6.50;3.60;;;19.30;99.90;;;;;;5072386;28;20200;-57
2022/09/22 09:08:43;;;;;;;5.50;3.50;;;19.60;99.90;;;;;;5063993;28;20234;-56
2022/09/22 09:11:47;;;;;;;8.38;3.00;;;19.40;99.90;;;;;;5059458;28;20291;-56
2022/09/22 09:14:32;;;;;;;4.85;2.47;;;19.30;99.90;;;;;;5018974;28;20207;-56
2022/09/22 09:17:00;;;;;;;11.65;3.03;;;19.30;99.90;;;;;;5050154;28;20177;-56
2022/09/22 09:19:36;;;;;;;9.90;2.65;;;19.00;99.90;;;;;;5066050;28;20200;-56
2022/09/22 09:22:26;;;;;;;5.25;1.92;;;19.10;99.90;;;;;;5050562;28;21975;-55
2022/09/22 09:25:02;;;;;;;5.32;1.83;;;18.90;99.90;;;;;;5066021;28;20176;-55
2022/09/22 09:27:32;;;;;;;3.65;1.70;;;19.10;99.90;;;;;;5050773;28;20254;-54
2022/09/22 09:30:10;;;;;;;11.35;1.58;;;19.10;99.90;;;;;;5050025;28;20211;-54
2022/09/22 09:32:59;;;;;;;6.95;1.80;;;19.70;99.90;;;;;;5048862;28;20180;-55
2022/09/22 09:35:57;;;;;;;5.43;1.90;;;19.40;99.90;;;;;;5048041;28;20208;-54
2022/09/22 09:38:38;;;;;;;4.25;1.98;;;19.40;99.90;;;;;;5003944;28;20229;-54
2022/09/22 09:41:18;;;;;;;3.67;1.80;;;19.40;99.90;;;;;;5047832;28;20176;-55
2022/09/22 09:43:44;;;;;;;5.93;2.10;;;19.40;99.90;;;;;;5048165;28;20161;-55
2022/09/22 09:46:33;;;;;;;4.13;1.40;;;19.30;99.90;;;;;;5050245;28;20173;-55
2022/09/22 09:49:08;;;;;;;4.80;1.70;;;19.30;99.90;;;;;;5053984;28;20675;-55
2022/09/22 09:51:37;;;;;;;7.53;1.80;;;19.50;99.90;;;;;;5053853;28;20295;-55
2022/09/22 09:54:06;;;;;;;5.25;1.80;;;19.50;99.90;;;;;;5053695;28;20629;-55
2022/09/22 09:56:35;;;;;;;5.40;1.80;;;20.50;99.90;;;;;;5053732;28;20648;-55
2022/09/22 10:01:56;;;;;;;7.43;2.20;;;21.10;99.90;;;;;;5053903;28;20188;-55
2022/09/22 10:04:31;;;;;;;4.88;1.63;;;21.60;99.90;;;;;;5053834;28;20199;-54
2022/09/22 10:07:15;;;;;;;4.15;1.85;;;22.20;99.90;;;;;;5053581;28;20255;-55
2022/09/22 10:09:41;;;;;;;7.05;1.60;;;22.70;99.90;;;;;;5053521;28;20188;-54
2022/09/22 10:12:23;;;;;;;4.85;2.03;;;21.60;99.90;;;;;;5053392;28;20277;-55
2022/09/22 10:14:51;;;;;;;3.83;1.63;;;21.40;99.90;;;;;;5053424;28;20238;-55
2022/09/22 10:17:25;;;;;;;4.45;1.80;;;21.20;99.90;;;;;;5056315;28;20185;-54
2022/09/22 10:19:51;;;;;;;10.27;2.20;;;20.70;99.90;;;;;;5071639;28;20207;-54
2022/09/22 10:22:27;;;;;;;4.57;2.00;;;20.50;99.90;;;;;;5068079;28;20176;-54
2022/09/22 10:24:56;;;;;;;5.88;2.00;;;19.80;99.90;;;;;;5065056;28;20176;-57
2022/09/22 10:27:22;;;;;;;4.65;1.90;;;19.50;99.90;;;;;;5072457;28;20188;-54
2022/09/22 10:30:21;;;;;;;10.68;2.28;;;19.40;99.90;;;;;;5073166;28;20173;-54
2022/09/22 10:33:11;;;;;;;15.88;2.40;;;20.30;99.90;;;;;;5073008;28;20183;-54
2022/09/22 10:35:38;;;;;;;6.45;2.20;;;20.40;99.90;;;;;;5072324;28;20187;-55
2022/09/22 10:38:13;;;;;;;6.05;1.95;;;20.80;99.90;;;;;;5071799;28;20191;-55
2022/09/22 10:40:42;;;;;;;5.50;2.42;;;21.80;99.90;;;;;;5068449;28;20176;-55
2022/09/22 10:43:25;;;;;;;7.78;2.60;;;21.10;99.90;;;;;;5072242;28;20203;-55
2022/09/22 10:46:27;;;;;;;5.43;2.50;;;21.10;99.90;;;;;;5071924;28;20172;-55
2022/09/22 10:49:02;;;;;;;4.65;2.33;;;20.20;99.90;;;;;;5063515;28;20172;-55
2022/09/22 10:51:54;;;;;;;4.78;2.55;;;21.00;99.90;;;;;;5072606;28;20296;-55
2022/09/22 10:54:34;;;;;;;5.70;2.25;;;21.10;99.90;;;;;;5072725;28;20188;-55
2022/09/22 10:57:08;;;;;;;6.00;2.95;;;21.90;99.90;;;;;;5072358;28;20639;-55
2022/09/22 10:59:33;;;;;;;8.93;2.85;;;22.70;99.90;;;;;;5072386;28;20181;-55
2022/09/22 11:02:20;;;;;;;6.93;2.75;;;21.90;99.90;;;;;;5072606;28;20184;-55
2022/09/22 11:12:15;;;;;;;4.35;2.30;;;21.20;99.90;;;;;;5072477;28;20259;-55
2022/09/22 11:14:47;;;;;;;5.65;2.13;;;19.70;99.90;;;;;;5072345;28;20168;-55
2022/09/22 11:17:21;;;;;;;3.47;2.20;;;20.70;99.90;;;;;;5071394;28;20177;-55
2022/09/22 11:19:49;;;;;;;5.50;2.40;;;21.00;99.90;;;;;;5071083;28;20168;-55
2022/09/22 11:22:18;;;;;;;5.75;2.55;;;23.00;99.90;;;;;;5070200;28;20203;-55
2022/09/22 11:25:25;;;;;;;5.15;2.38;;;22.60;99.90;;;;;;5071580;28;20180;-55
2022/09/22 11:27:50;;;;;;;9.23;2.47;;;22.60;99.90;;;;;;4970646;28;20188;-55
2022/09/22 11:30:21;;;;;;;4.53;2.63;;;22.60;99.90;;;;;;4970825;28;20386;-55
2022/09/22 11:33:07;;;;;;;6.63;2.55;;;21.80;99.90;;;;;;5021047;28;20734;-55
2022/09/22 11:35:41;;;;;;;5.90;2.80;;;21.60;99.90;;;;;;5071400;28;20177;-55
2022/09/22 11:38:28;;;;;;;9.13;2.95;;;20.90;99.90;;;;;;5071423;28;20175;-55
2022/09/22 11:41:06;;;;;;;5.80;2.40;;;21.60;99.90;;;;;;5071205;28;20173;-56
2022/09/22 11:44:08;;;;;;;6.43;2.58;;;21.50;99.90;;;;;;5071323;28;20184;-56
2022/09/22 11:47:04;;;;;;;3.95;2.20;;;22.20;99.90;;;;;;5070999;28;20308;-55
2022/09/22 11:50:09;;;;;;;9.38;2.60;;;21.90;99.90;;;;;;5071320;28;20261;-55
2022/09/22 11:53:10;;;;;;;2.97;2.13;;;22.50;99.90;;;;;;5071047;28;20229;-55
2022/09/22 11:56:21;;;;;;;3.83;1.95;;;21.60;99.90;;;;;;5054018;28;20176;-55
2022/09/22 11:58:50;;;;;;;5.97;2.35;;;21.50;99.90;;;;;;5071044;28;20579;-55
2022/09/22 12:01:28;;;;;;;6.07;2.30;;;21.50;99.90;;;;;;5071146;28;20168;-55
2022/09/22 12:04:32;;;;;;;2.50;1.80;;;21.60;99.90;;;;;;5070909;28;20177;-55
2022/09/22 12:07:00;;;;;;;4.95;1.85;;;22.00;99.90;;;;;;5036615;28;20200;-55
2022/09/22 12:09:32;;;;;;;4.28;1.77;;;22.70;99.90;;;;;;5070777;28;20657;-55
2022/09/22 12:12:00;;;;;;;2.90;1.80;;;23.60;99.90;;;;;;5071174;28;20216;-55
2022/09/22 12:14:26;;;;;;;4.00;1.90;;;24.50;99.90;;;;;;5071312;28;20246;-55
2022/09/22 12:17:01;;;;;;;3.38;1.52;;;24.40;99.90;;;;;;5070591;28;20190;-55
2022/09/22 12:19:33;;;;;;;4.53;1.55;;;24.60;99.90;;;;;;5069637;28;20217;-55
2022/09/22 12:22:18;;;;;;;3.30;1.95;;;24.70;99.90;;;;;;5071168;28;20172;-55
2022/09/22 12:24:46;;;;;;;5.68;1.70;;;24.90;99.90;;;;;;5070964;28;20254;-55
2022/09/22 12:27:31;;;;;;;2.47;1.40;;;24.60;99.90;;;;;;5069609;28;20191;-55
2022/09/22 12:30:21;;;;;;;4.72;1.38;;;24.10;99.90;;;;;;5070359;28;20227;-55
2022/09/22 12:32:48;;;;;;;4.22;1.90;;;24.00;99.90;;;;;;5070439;28;20180;-55
2022/09/22 12:35:23;;;;;;;4.75;1.55;;;24.30;99.90;;;;;;5069463;28;20188;-55
2022/09/22 12:37:52;;;;;;;3.75;1.50;;;25.00;99.90;;;;;;5070919;28;20216;-55
2022/09/22 12:40:35;;;;;;;2.58;1.30;;;25.70;99.90;;;;;;5070410;28;20627;-55
2022/09/22 12:43:01;;;;;;;6.70;1.55;;;25.40;99.90;;;;;;5070152;28;20233;-55
2022/09/22 12:45:39;;;;;;;5.15;1.88;;;24.30;99.90;;;;;;5065999;28;20648;-55
2022/09/22 12:48:12;;;;;;;5.00;1.77;;;24.00;99.90;;;;;;5070221;28;20619;-55
2022/09/22 12:50:40;;;;;;;5.38;1.92;;;24.70;99.90;;;;;;5069712;28;20303;-56
2022/09/22 12:53:21;;;;;;;9.60;2.25;;;24.60;99.90;;;;;;5052348;28;20204;-55
2022/09/22 12:55:49;;;;;;;9.30;1.88;;;24.90;99.90;;;;;;5070108;28;20200;-56
2022/09/22 12:58:17;;;;;;;6.85;2.20;;;25.00;99.90;;;;;;5068582;28;20255;-56
2022/09/22 13:00:43;;;;;;;7.18;1.95;;;24.40;99.90;;;;;;5065660;28;20180;-55
2022/09/22 13:03:24;;;;;;;12.52;1.80;;;24.10;99.90;;;;;;5070072;28;20180;-55
2022/09/22 13:06:02;;;;;;;5.88;1.67;;;23.10;99.90;;;;;;5069647;28;20231;-55
2022/09/22 13:08:31;;;;;;;4.55;1.65;;;23.10;99.90;;;;;;5070295;28;20204;-55
2022/09/22 13:11:01;;;;;;;7.40;1.73;;;22.70;99.90;;;;;;5070048;28;20602;-55
2022/09/22 13:13:36;;;;;;;4.60;1.58;;;22.50;99.90;;;;;;5069746;28;20286;-56
2022/09/22 13:16:24;;;;;;;3.15;1.65;;;21.90;99.90;;;;;;5069061;28;20204;-55
2022/09/22 13:18:53;;;;;;;6.80;1.70;;;21.80;99.90;;;;;;5056858;28;20193;-55